Time;durP1;ratioP1;P1;durP2;ratioP2;P2;SDS_P1;SDS_P2;PMS_P1;PMS_P2;Temp;Humidity;BMP_temperature;BMP_pressure;BME280_temperature;BME280_humidity;BME280_pressure;Samples;Min_cycle;Max_cycle;Signal;HPM_P1;HPM_P2
2022/12/13 00:00:39;;;;;;;25.37;12.03;;;;;;;-142.75;100.00;78866.19;4999359;28;20260;-65
2022/12/13 00:03:06;;;;;;;25.80;12.13;;;;;;;-142.75;100.00;78850.44;4996557;28;20426;-65
2022/12/13 00:05:32;;;;;;;20.13;11.17;;;;;;;-142.75;100.00;78836.66;4992134;28;20055;-66
2022/12/13 00:07:59;;;;;;;20.85;10.70;;;;;;;-142.75;100.00;78834.69;4990543;28;20350;-65
2022/12/13 00:10:24;;;;;;;26.83;12.87;;;;;;;-142.75;100.00;78834.69;4994523;28;20042;-65
2022/12/13 00:12:50;;;;;;;28.60;11.50;;;;;;;-142.75;100.00;78858.31;4996099;28;20318;-65
2022/12/13 00:15:15;;;;;;;21.92;10.60;;;;;;;-142.75;100.00;78866.19;5002040;28;20332;-65
2022/12/13 00:17:41;;;;;;;27.40;10.25;;;;;;;-142.75;100.00;78870.13;4995156;28;20314;-65
2022/12/13 00:20:07;;;;;;;24.10;10.32;;;;;;;-142.75;100.00;78899.69;4992742;28;20029;-65
2022/12/13 00:22:32;;;;;;;;;;;;;;;-142.75;100.00;78929.22;4991982;28;20024;-64
2022/12/13 00:24:58;;;;;;;20.67;9.10;;;;;;;-142.75;100.00;78956.78;4987047;28;20205;-64
2022/12/13 00:27:23;;;;;;;17.42;9.50;;;;;;;-142.75;100.00;78980.44;4990122;28;20314;-64
2022/12/13 00:29:49;;;;;;;22.80;9.18;;;;;;;-142.75;100.00;78982.41;4992241;28;20314;-65
2022/12/13 00:32:15;;;;;;;23.13;9.88;;;;;;;-142.75;100.00;78972.56;4985992;28;20029;-64
2022/12/13 00:34:41;;;;;;;18.60;9.02;;;;;;;-142.75;100.00;79002.09;4995224;28;20383;-65
2022/12/13 00:37:06;;;;;;;20.77;8.57;;;;;;;-142.75;100.00;78996.19;5005789;28;20329;-70
2022/12/13 00:39:32;;;;;;;14.10;7.72;;;;;;;-142.75;100.00;78988.31;5016507;28;20029;-74
2022/12/13 00:41:57;;;;;;;18.48;8.35;;;;;;;-142.75;100.00;79008.00;5029803;28;20197;-70
2022/12/13 00:44:23;;;;;;;15.82;8.07;;;;;;;-142.75;100.00;79021.78;5021365;28;20064;-70
2022/12/13 00:46:50;;;;;;;15.73;7.53;;;;;;;-142.75;100.00;79029.66;5030972;28;20340;-70
2022/12/13 00:49:19;;;;;;;18.93;9.47;;;;;;;-142.75;100.00;79035.59;5032085;28;20043;-72
2022/12/13 00:51:44;;;;;;;18.07;8.70;;;;;;;-142.75;100.00;79013.91;5033047;28;20524;-72
2022/12/13 00:54:10;;;;;;;17.40;9.38;;;;;;;-142.75;100.00;79000.13;5016772;28;20021;-72
2022/12/13 00:56:36;;;;;;;17.35;8.90;;;;;;;-142.75;100.00;78976.50;5015832;28;20031;-73
2022/12/13 00:59:02;;;;;;;18.57;10.13;;;;;;;-142.75;100.00;78956.78;5022143;28;20024;-74
2022/12/13 01:01:30;;;;;;;;;;;;;;;-142.75;100.00;78925.28;5027021;28;20078;-74
2022/12/13 01:04:00;;;;;;;18.83;8.30;;;;;;;-142.75;100.00;78911.50;5033712;28;19912;-72
2022/12/13 01:06:38;;;;;;;20.23;9.37;;;;;;;-142.75;100.00;78885.88;5017146;28;20086;-74
2022/12/13 01:09:14;;;;;;;19.80;8.27;;;;;;;-142.75;100.00;78921.34;5029359;28;20032;-69
2022/12/13 01:11:40;;;;;;;21.57;9.23;;;;;;;-142.75;100.00;78937.09;5035762;28;20020;-72
2022/12/13 01:14:05;;;;;;;17.92;9.75;;;;;;;-142.75;100.00;78948.91;5042184;28;20063;-71
2022/12/13 01:16:31;;;;;;;15.02;8.02;;;;;;;-142.75;100.00;78980.44;5033069;28;20043;-72
2022/12/13 01:18:57;;;;;;;15.25;7.40;;;;;;;-142.75;100.00;78980.44;5023944;28;20260;-72
2022/12/13 01:21:22;;;;;;;16.83;8.02;;;;;;;-142.75;100.00;79004.06;5036200;28;20090;-72
2022/12/13 01:23:48;;;;;;;16.80;7.90;;;;;;;-142.75;100.00;79023.75;5031529;28;20024;-72
2022/12/13 01:26:19;;;;;;;16.90;8.05;;;;;;;-142.75;100.00;79023.75;5041873;28;20151;-72
2022/12/13 01:28:45;;;;;;;12.10;7.17;;;;;;;-142.75;100.00;79027.69;5027241;28;20037;-73
2022/12/13 01:31:14;;;;;;;12.10;6.80;;;;;;;-142.75;100.00;79047.41;5025498;28;20031;-69
2022/12/13 01:33:44;;;;;;;9.00;6.17;;;;;;;-142.75;100.00;79049.38;5039596;28;20107;-74
2022/12/13 01:36:15;;;;;;;11.67;6.43;;;;;;;-142.75;100.00;79053.31;5030990;28;20051;-74
2022/12/13 01:38:41;;;;;;;10.23;5.87;;;;;;;-142.75;100.00;79061.19;5032660;28;20036;-72
2022/12/13 01:41:08;;;;;;;18.60;8.57;;;;;;;-142.75;100.00;79043.47;5021269;28;20109;-71
2022/12/13 01:43:40;;;;;;;17.50;7.77;;;;;;;-142.75;100.00;79017.84;5036730;28;20534;-71
2022/12/13 01:46:05;;;;;;;20.47;8.97;;;;;;;-142.75;100.00;78992.25;5032960;28;20656;-71
2022/12/13 01:48:38;;;;;;;21.30;9.40;;;;;;;-142.75;100.00;78968.63;5015283;28;20021;-72
2022/12/13 01:51:13;;;;;;;33.30;11.37;;;;;;;-142.75;100.00;78950.88;5034908;28;20546;-69
2022/12/13 01:53:42;;;;;;;24.50;9.17;;;;;;;-142.75;100.00;78937.09;5029278;28;20025;-72
2022/12/13 01:56:15;;;;;;;23.20;10.17;;;;;;;-142.75;100.00;78927.25;5030306;28;20032;-73
2022/12/13 01:58:49;;;;;;;19.90;9.90;;;;;;;-142.75;100.00;78954.81;5022897;28;20508;-70
2022/12/13 02:01:15;;;;;;;18.90;9.57;;;;;;;-142.75;100.00;78954.81;5032263;28;20032;-72
2022/12/13 02:03:41;;;;;;;24.57;10.67;;;;;;;-142.75;100.00;78952.84;5038241;28;20526;-74
2022/12/13 02:06:15;;;;;;;23.15;10.30;;;;;;;-142.75;100.00;78972.56;5030179;28;20066;-73
2022/12/13 02:08:48;;;;;;;11.97;6.90;;;;;;;-142.75;100.00;78972.56;5034536;28;20085;-71
2022/12/13 02:11:14;;;;;;;16.57;7.67;;;;;;;-142.75;100.00;78972.56;5026726;28;20114;-70
2022/12/13 02:13:40;;;;;;;16.80;7.30;;;;;;;-142.75;100.00;79008.00;5037267;28;20094;-72
2022/12/13 02:16:14;;;;;;;16.02;7.88;;;;;;;-142.75;100.00;79013.91;5026151;28;20194;-72
2022/12/13 02:19:02;;;;;;;19.53;9.67;;;;;;;-142.75;100.00;78988.31;5018132;28;20147;-72
2022/12/13 02:21:59;;;;;;;19.07;8.87;;;;;;;-142.75;100.00;78996.19;5025457;28;20603;-72
2022/12/13 02:24:37;;;;;;;15.60;8.10;;;;;;;-142.75;100.00;79002.09;5013628;28;20633;-72
2022/12/13 02:27:10;;;;;;;18.77;7.90;;;;;;;-142.75;100.00;79008.00;4998244;28;20033;-72
2022/12/13 02:29:57;;;;;;;22.83;9.20;;;;;;;-142.75;100.00;79000.13;5005318;28;20021;-73
2022/12/13 02:32:31;;;;;;;18.10;8.13;;;;;;;-142.75;100.00;79023.75;5018576;28;20664;-72
2022/12/13 02:35:06;;;;;;;14.10;7.80;;;;;;;-142.75;100.00;79039.53;4999704;28;20033;-73
2022/12/13 02:37:37;;;;;;;23.77;7.90;;;;;;;-142.75;100.00;79076.94;5011754;28;20028;-73
2022/12/13 02:40:10;;;;;;;18.53;7.80;;;;;;;-142.75;100.00;79082.84;5025528;28;20037;-73
2022/12/13 02:42:51;;;;;;;19.27;8.33;;;;;;;-142.75;100.00;79067.09;5020352;28;20020;-73
2022/12/13 02:45:22;;;;;;;19.07;8.17;;;;;;;-142.75;100.00;79090.72;5018093;28;20132;-71
2022/12/13 02:47:53;;;;;;;19.77;9.10;;;;;;;-142.75;100.00;79078.91;5033729;28;20056;-74
2022/12/13 02:50:20;;;;;;;15.97;8.30;;;;;;;-142.75;100.00;79067.09;5033679;28;20036;-70
2022/12/13 02:52:50;;;;;;;24.23;9.20;;;;;;;-142.75;100.00;79055.28;5040167;28;20541;-73
2022/12/13 02:55:16;;;;;;;20.13;9.93;;;;;;;-142.75;100.00;79017.84;5018298;28;20546;-73
2022/12/13 02:57:51;;;;;;;22.88;9.73;;;;;;;-142.75;100.00;79015.88;5016009;28;20025;-74
2022/12/13 03:00:48;;;;;;;18.87;9.30;;;;;;;-142.75;100.00;79035.59;5021295;28;20028;-70
2022/12/13 03:03:36;;;;;;;24.00;9.70;;;;;;;-142.75;100.00;79047.41;5022775;28;20099;-74
2022/12/13 03:09:29;;;;;;;19.15;8.43;;;;;;;-142.75;100.00;79027.69;5007835;28;20268;-70
2022/12/13 03:15:20;;;;;;;18.35;8.43;;;;;;;-142.75;100.00;79063.16;5029721;28;20095;-71
2022/12/13 03:18:01;;;;;;;18.50;8.83;;;;;;;-142.75;100.00;79076.94;5011803;28;20025;-72
2022/12/13 03:20:31;;;;;;;19.33;9.20;;;;;;;-142.75;100.00;79078.91;5018851;28;20102;-72
2022/12/13 03:22:57;;;;;;;18.63;9.43;;;;;;;-142.75;100.00;79071.03;5011821;28;20060;-72
2022/12/13 03:25:25;;;;;;;19.45;8.38;;;;;;;-142.75;100.00;79055.28;5013674;28;20047;-73
2022/12/13 03:27:51;;;;;;;16.07;8.77;;;;;;;-142.75;100.00;79051.34;5012707;28;20021;-72
2022/12/13 03:30:17;;;;;;;18.90;9.13;;;;;;;-142.75;100.00;79049.38;5023074;28;20028;-74
2022/12/13 03:32:42;;;;;;;20.15;9.10;;;;;;;-142.75;100.00;79041.50;5022766;28;20278;-72
2022/12/13 03:35:11;;;;;;;20.10;8.23;;;;;;;-142.75;100.00;79031.66;5015401;28;20475;-73
2022/12/13 03:37:37;;;;;;;19.63;9.03;;;;;;;-142.75;100.00;79043.47;5032499;28;20133;-71
2022/12/13 03:40:03;;;;;;;26.70;9.77;;;;;;;-142.75;100.00;79047.41;5037494;28;20101;-72
2022/12/13 03:42:36;;;;;;;21.63;8.00;;;;;;;-142.75;100.00;79055.28;5036034;28;20016;-71
2022/12/13 03:45:01;;;;;;;28.87;9.80;;;;;;;-142.75;100.00;79043.47;5034151;28;20097;-73
2022/12/13 03:47:27;;;;;;;17.90;8.10;;;;;;;-142.75;100.00;79049.38;5037769;28;20112;-69
2022/12/13 03:49:52;;;;;;;22.27;10.07;;;;;;;-142.75;100.00;79041.50;5036862;28;20050;-73
2022/12/13 03:52:18;;;;;;;19.25;8.82;;;;;;;-142.75;100.00;79029.66;5020168;28;20351;-73
2022/12/13 03:54:43;;;;;;;24.55;9.27;;;;;;;-142.75;100.00;79041.50;5022909;28;20189;-73
2022/12/13 03:57:09;;;;;;;17.10;8.50;;;;;;;-142.75;100.00;79041.50;5018301;28;20055;-74
2022/12/13 03:59:37;;;;;;;11.73;5.75;;;;;;;-142.75;100.00;79043.47;5031612;28;20292;-73
2022/12/13 04:02:03;;;;;;;26.73;9.47;;;;;;;-142.75;100.00;79039.53;5029667;28;20040;-74
2022/12/13 04:04:28;;;;;;;20.25;9.73;;;;;;;-142.75;100.00;79041.50;5018772;28;20144;-72
2022/12/13 04:06:54;;;;;;;19.77;9.45;;;;;;;-142.75;100.00;79033.63;5023762;28;20228;-74
2022/12/13 04:09:22;;;;;;;21.33;10.10;;;;;;;-142.75;100.00;79023.75;5033492;28;20024;-71
2022/12/13 04:14:32;;;;;;;19.30;9.17;;;;;;;-142.75;100.00;78996.19;5021392;28;20116;-72
2022/12/13 04:16:57;;;;;;;20.38;9.15;;;;;;;-142.75;100.00;79004.06;5027348;28;20549;-74
2022/12/13 04:19:23;;;;;;;19.30;9.48;;;;;;;-142.75;100.00;78998.16;5034731;28;20046;-72
2022/12/13 04:21:48;;;;;;;22.65;10.70;;;;;;;-142.75;100.00;78996.19;5014496;28;20047;-73
2022/12/13 04:24:15;;;;;;;21.30;9.10;;;;;;;-142.75;100.00;78998.16;5023100;28;20109;-71
2022/12/13 04:26:40;;;;;;;21.60;9.53;;;;;;;-142.75;100.00;78980.44;5021822;28;20063;-74
2022/12/13 04:29:09;;;;;;;19.92;9.90;;;;;;;-142.75;100.00;78974.53;5021887;28;20030;-72
2022/12/13 04:31:34;;;;;;;23.43;10.57;;;;;;;-142.75;100.00;78972.56;5008653;28;20028;-72
2022/12/13 04:34:00;;;;;;;20.08;9.32;;;;;;;-142.75;100.00;78974.53;5014476;28;20031;-73
2022/12/13 04:36:25;;;;;;;19.88;9.70;;;;;;;-142.75;100.00;78968.63;5007622;28;20409;-73
2022/12/13 04:38:51;;;;;;;18.92;9.88;;;;;;;-142.75;100.00;78974.53;5012528;28;20189;-73
2022/12/13 04:41:18;;;;;;;24.20;10.80;;;;;;;-142.75;100.00;78986.34;5017756;28;20036;-73
2022/12/13 04:43:49;;;;;;;22.23;10.43;;;;;;;-142.75;100.00;78980.44;5006778;28;20135;-74
2022/12/13 04:46:15;;;;;;;19.90;10.10;;;;;;;-142.75;100.00;78968.63;4999476;28;20053;-75
2022/12/13 04:48:40;;;;;;;27.48;11.40;;;;;;;-142.75;100.00;78978.47;5005206;28;20286;-74
2022/12/13 04:51:06;;;;;;;18.42;9.85;;;;;;;-142.75;100.00;78976.50;4999417;28;20315;-74
2022/12/13 04:53:31;;;;;;;26.13;11.80;;;;;;;-142.75;100.00;78978.47;4998991;28;20273;-73
2022/12/13 04:55:58;;;;;;;24.17;11.10;;;;;;;-142.75;100.00;78966.66;5010224;28;20024;-73
2022/12/13 04:58:23;;;;;;;22.67;10.57;;;;;;;-142.75;100.00;78948.91;5012090;28;20728;-71
2022/12/13 05:00:49;;;;;;;21.05;10.07;;;;;;;-142.75;100.00;78941.03;4999730;28;20025;-74
2022/12/13 05:03:15;;;;;;;21.60;10.57;;;;;;;-142.75;100.00;78950.88;4998937;28;20349;-72
2022/12/13 05:05:40;;;;;;;20.88;10.10;;;;;;;-142.75;100.00;78944.97;4999808;28;20056;-74
2022/12/13 05:08:07;;;;;;;20.50;9.63;;;;;;;-142.75;100.00;78944.97;5006329;28;20268;-74
2022/12/13 05:10:33;;;;;;;22.60;10.10;;;;;;;-142.75;100.00;78964.69;5012801;28;20020;-74
2022/12/13 05:13:00;;;;;;;22.93;10.00;;;;;;;-142.75;100.00;78972.56;5004045;28;20140;-73
2022/12/13 05:15:25;;;;;;;22.63;10.33;;;;;;;-142.75;100.00;78984.38;5018048;28;20135;-71
2022/12/13 05:17:51;;;;;;;20.80;9.68;;;;;;;-142.75;100.00;78996.19;5016974;28;20033;-72
2022/12/13 05:20:16;;;;;;;18.70;9.45;;;;;;;-142.75;100.00;79015.88;5025774;28;20198;-72
2022/12/13 05:22:43;;;;;;;24.75;9.40;;;;;;;-142.75;100.00;79019.81;5016124;28;20357;-72
2022/12/13 05:25:08;;;;;;;19.13;9.50;;;;;;;-142.75;100.00;79019.81;5018338;28;20029;-74
2022/12/13 05:27:34;;;;;;;16.50;8.60;;;;;;;-142.75;100.00;79023.75;5006822;28;20334;-74
2022/12/13 05:29:59;;;;;;;18.48;9.05;;;;;;;-142.75;100.00;79047.41;5008308;28;20024;-72
2022/12/13 05:32:25;;;;;;;17.98;8.88;;;;;;;-142.75;100.00;79061.19;5011847;28;20036;-72
2022/12/13 05:34:51;;;;;;;20.20;8.82;;;;;;;-142.75;100.00;79063.16;5005985;28;20441;-74
2022/12/13 05:37:16;;;;;;;19.20;8.25;;;;;;;-142.75;100.00;79067.09;5010667;28;20202;-73
2022/12/13 05:39:42;;;;;;;19.25;8.60;;;;;;;-142.75;100.00;79071.03;5011376;28;20148;-73
2022/12/13 05:42:08;;;;;;;16.23;8.68;;;;;;;-142.75;100.00;79055.28;5012965;28;20031;-74
2022/12/13 05:44:34;;;;;;;19.90;9.23;;;;;;;-142.75;100.00;79063.16;5024361;28;20020;-73
2022/12/13 05:47:00;;;;;;;21.08;8.65;;;;;;;-142.75;100.00;79061.19;5012387;28;20028;-71
2022/12/13 05:49:25;;;;;;;;;;;;;;;-142.75;100.00;79067.09;5004403;28;20033;-73
2022/12/13 05:51:51;;;;;;;18.37;8.40;;;;;;;-142.75;100.00;79059.22;5016769;28;20059;-72
2022/12/13 05:54:16;;;;;;;22.75;9.50;;;;;;;-142.75;100.00;79059.22;5001658;28;20028;-76
2022/12/13 05:56:42;;;;;;;23.83;10.02;;;;;;;-142.75;100.00;79051.34;5005437;28;20354;-76
2022/12/13 05:59:07;;;;;;;20.00;9.57;;;;;;;-142.75;100.00;79015.88;5003720;28;20202;-75
2022/12/13 06:01:33;;;;;;;24.15;9.98;;;;;;;-142.75;100.00;79015.88;5010054;28;20282;-74
2022/12/13 06:03:58;;;;;;;19.45;9.73;;;;;;;-142.75;100.00;79000.13;4993296;28;20012;-74
2022/12/13 06:06:24;;;;;;;22.20;9.82;;;;;;;-142.75;100.00;78982.41;4997008;28;20190;-72
2022/12/13 06:08:49;;;;;;;17.45;9.05;;;;;;;-142.75;100.00;78984.38;4999374;28;20114;-75
2022/12/13 06:11:15;;;;;;;26.02;10.80;;;;;;;-142.75;100.00;78966.66;5005857;28;20471;-74
2022/12/13 06:13:42;;;;;;;18.10;9.07;;;;;;;-142.75;100.00;78968.63;4992882;28;20040;-73
2022/12/13 06:16:08;;;;;;;16.53;8.97;;;;;;;-142.75;100.00;78986.34;4992529;28;20047;-74
2022/12/13 06:18:34;;;;;;;21.05;8.98;;;;;;;-142.75;100.00;78984.38;5001349;28;20340;-72
2022/12/13 06:21:05;;;;;;;27.53;8.87;;;;;;;-142.75;100.00;78976.50;4991264;28;20573;-73
2022/12/13 06:23:33;;;;;;;21.20;9.97;;;;;;;-142.75;100.00;78968.63;4996559;28;20025;-75
2022/12/13 06:26:02;;;;;;;27.60;10.97;;;;;;;-142.75;100.00;78960.72;4997708;28;20021;-75
2022/12/13 06:28:28;;;;;;;19.83;10.20;;;;;;;-142.75;100.00;78968.63;5002608;28;20611;-73
2022/12/13 06:30:53;;;;;;;19.25;9.43;;;;;;;-142.75;100.00;78952.84;4992792;28;20032;-74
2022/12/13 06:33:19;;;;;;;22.42;9.38;;;;;;;-142.75;100.00;78941.03;4998699;28;20122;-75
2022/12/13 06:35:45;;;;;;;21.15;10.57;;;;;;;-142.75;100.00;78952.84;5004030;28;20309;-73
2022/12/13 06:38:12;;;;;;;19.50;10.65;;;;;;;-142.75;100.00;78954.81;5001641;28;20845;-67
2022/12/13 06:40:37;;;;;;;28.83;12.07;;;;;;;-142.75;100.00;78952.84;4991108;28;20032;-66
2022/12/13 06:43:04;;;;;;;25.00;11.73;;;;;;;-142.75;100.00;78956.78;4991428;28;20333;-66
2022/12/13 06:45:29;;;;;;;21.63;10.23;;;;;;;-142.75;100.00;78954.81;4988781;28;20020;-66
2022/12/13 06:47:56;;;;;;;28.35;10.77;;;;;;;-142.75;100.00;78968.63;5000380;28;20341;-66
2022/12/13 06:50:21;;;;;;;27.60;12.37;;;;;;;-142.75;100.00;78988.31;5000766;28;20124;-67
2022/12/13 06:52:47;;;;;;;32.40;12.18;;;;;;;-142.75;100.00;78976.50;4993304;28;20029;-66
2022/12/13 06:55:13;;;;;;;28.05;12.77;;;;;;;-142.75;100.00;78964.69;5003722;28;20032;-66
2022/12/13 06:57:38;;;;;;;26.60;11.07;;;;;;;-142.75;100.00;78960.72;4999796;28;20365;-66
2022/12/13 07:00:04;;;;;;;26.10;11.55;;;;;;;-142.75;100.00;78962.69;5000306;28;20454;-65
2022/12/13 07:02:31;;;;;;;21.63;11.30;;;;;;;-142.75;100.00;78962.69;4996680;28;20762;-65
2022/12/13 07:04:56;;;;;;;20.60;10.63;;;;;;;-142.75;100.00;78964.69;4987796;28;20102;-65
2022/12/13 07:07:23;;;;;;;20.20;10.45;;;;;;;-142.75;100.00;78982.41;5003995;28;20186;-66
2022/12/13 07:09:49;;;;;;;17.27;10.07;;;;;;;-142.75;100.00;79006.03;4996964;28;20901;-66
2022/12/13 07:12:14;;;;;;;24.05;10.32;;;;;;;-142.75;100.00;79023.75;4984112;28;20025;-66
2022/12/13 07:14:40;;;;;;;17.70;9.43;;;;;;;-142.75;100.00;79043.47;5001944;28;20464;-67
2022/12/13 07:17:05;;;;;;;17.15;9.77;;;;;;;-142.75;100.00;79039.53;4991032;28;20311;-66
2022/12/13 07:19:31;;;;;;;17.83;9.10;;;;;;;-142.75;100.00;79035.59;4990459;28;20306;-66
2022/12/13 07:21:56;;;;;;;25.38;9.25;;;;;;;-142.75;100.00;79061.19;4991901;28;20197;-66
2022/12/13 07:24:22;;;;;;;19.35;9.35;;;;;;;-142.75;100.00;79045.44;4983928;28;20444;-67
2022/12/13 07:26:47;;;;;;;21.38;9.55;;;;;;;-142.75;100.00;79049.38;4995828;28;20420;-66
2022/12/13 07:29:13;;;;;;;18.13;8.48;;;;;;;-142.75;100.00;79094.69;4992052;28;20436;-66
2022/12/13 07:31:38;;;;;;;15.13;7.50;;;;;;;-142.75;100.00;79098.63;4997323;28;20202;-66
2022/12/13 07:34:04;;;;;;;18.60;8.35;;;;;;;-142.75;100.00;79071.03;4995538;28;20139;-67
2022/12/13 07:36:30;;;;;;;17.80;8.07;;;;;;;-142.75;100.00;79074.97;4988813;28;20347;-65
2022/12/13 07:38:56;;;;;;;26.10;9.30;;;;;;;-142.75;100.00;79067.09;4988474;28;20372;-66
2022/12/13 07:41:24;;;;;;;21.57;10.23;;;;;;;-142.75;100.00;79076.94;4990908;28;20029;-66
2022/12/13 07:43:50;;;;;;;30.73;10.03;;;;;;;-142.75;100.00;79071.03;4995618;28;20135;-67
2022/12/13 07:46:15;;;;;;;;;;;;;;;-142.75;100.00;79080.88;4986239;28;20139;-64
2022/12/13 07:48:41;;;;;;;19.47;7.77;;;;;;;-142.75;100.00;79098.63;4987603;28;20086;-64
2022/12/13 07:51:12;;;;;;;18.23;8.50;;;;;;;-142.75;100.00;79082.84;4995167;28;20229;-64
2022/12/13 07:53:39;;;;;;;18.90;8.77;;;;;;;-142.75;100.00;79082.84;4986076;28;20040;-64
2022/12/13 07:56:05;;;;;;;;;;;;;;;-142.75;100.00;79074.97;4991356;28;20079;-65
2022/12/13 07:58:32;;;;;;;18.07;7.30;;;;;;;-142.75;100.00;79118.31;4986803;28;20043;-66
2022/12/13 08:01:04;;;;;;;18.67;7.57;;;;;;;-142.75;100.00;79106.50;4994945;28;20025;-66
2022/12/13 08:03:30;;;;;;;18.37;9.30;;;;;;;-142.75;100.00;79106.50;5001747;28;20028;-67
2022/12/13 08:06:06;;;;;;;17.42;8.77;;;;;;;-142.75;100.00;79122.25;4988964;28;20365;-66
2022/12/13 08:08:32;;;;;;;16.85;8.82;;;;;;;-142.75;100.00;79134.06;4982595;28;20633;-67
2022/12/13 08:11:08;;;;;;;19.20;9.57;;;;;;;-142.75;100.00;79106.50;4987570;28;20082;-66
2022/12/13 08:13:34;;;;;;;20.37;10.10;;;;;;;-142.75;100.00;79088.75;4982261;28;20050;-67
2022/12/13 08:16:02;;;;;;;25.33;10.17;;;;;;;-142.75;100.00;79090.72;4993976;28;20104;-66
2022/12/13 08:18:28;;;;;;;21.53;10.07;;;;;;;-142.75;100.00;79112.41;4983478;28;20021;-66
2022/12/13 08:20:57;;;;;;;;;;;;;;;-142.75;100.00;79094.69;4988831;28;20056;-67
2022/12/13 08:23:23;;;;;;;22.33;9.37;;;;;;;-142.75;100.00;79086.78;4992104;28;19916;-66
2022/12/13 08:25:53;;;;;;;18.80;9.75;;;;;;;-142.75;100.00;79063.16;4995868;28;20100;-67
2022/12/13 08:28:18;;;;;;;19.27;9.73;;;;;;;-142.75;100.00;79065.13;4988970;28;20017;-67
2022/12/13 08:30:44;;;;;;;24.17;10.60;;;;;;;-142.75;100.00;79049.38;4994338;28;20383;-67
2022/12/13 08:33:09;;;;;;;21.05;10.45;;;;;;;-142.75;100.00;79035.59;5000383;28;20020;-66
2022/12/13 08:35:35;;;;;;;41.42;11.13;;;;;;;-142.75;100.00;79025.72;4986543;28;20444;-68
2022/12/13 08:38:01;;;;;;;23.58;10.15;;;;;;;-142.75;100.00;79011.94;4990578;28;20329;-67
2022/12/13 08:40:27;;;;;;;23.52;11.43;;;;;;;-142.75;100.00;78976.50;4991674;28;20328;-67
2022/12/13 08:42:54;;;;;;;29.10;11.13;;;;;;;-142.75;100.00;78948.91;4998112;28;20220;-67
2022/12/13 08:45:20;;;;;;;29.13;11.97;;;;;;;-142.75;100.00;78937.09;5001198;28;20052;-67
2022/12/13 08:47:45;;;;;;;36.70;12.10;;;;;;;-142.75;100.00;78921.34;4990540;28;20176;-65
2022/12/13 08:50:11;;;;;;;24.95;12.50;;;;;;;-142.75;100.00;78899.69;4995091;28;20247;-64
2022/12/13 08:52:37;;;;;;;22.67;11.93;;;;;;;-142.75;100.00;78868.16;5002164;28;20386;-65
2022/12/13 08:55:02;;;;;;;;;;;;;;;-142.75;100.00;78856.34;4994885;28;20058;-65
2022/12/13 08:57:28;;;;;;;21.33;10.20;;;;;;;-142.75;100.00;78881.94;4988468;28;20086;-61
2022/12/13 08:59:54;;;;;;;21.23;10.57;;;;;;;-142.75;100.00;78854.38;4996943;28;20036;-66
2022/12/13 09:02:19;;;;;;;26.33;11.13;;;;;;;-142.75;100.00;78824.84;4994837;28;20338;-66
2022/12/13 09:04:45;;;;;;;29.27;11.30;;;;;;;-142.75;100.00;78757.88;4989325;28;20028;-66
2022/12/13 09:07:10;;;;;;;27.60;12.15;;;;;;;-142.75;100.00;78706.66;4987816;28;20520;-67
2022/12/13 09:09:36;;;;;;;26.00;11.88;;;;;;;-142.75;100.00;78700.75;4991224;28;20409;-67
2022/12/13 09:12:01;;;;;;;22.60;12.45;;;;;;;-142.75;100.00;78706.66;4983941;28;20342;-66
2022/12/13 09:14:28;;;;;;;21.98;12.13;;;;;;;-142.75;100.00;78698.78;4988851;28;20325;-66
2022/12/13 09:16:53;;;;;;;26.13;12.23;;;;;;;-142.75;100.00;78704.69;4993517;28;20028;-67
2022/12/13 09:19:19;;;;;;;27.27;12.50;;;;;;;-142.75;100.00;78688.94;5032772;28;20078;-68
2022/12/13 09:21:44;;;;;;;43.95;12.93;;;;;;;-142.75;100.00;78683.03;5037679;28;20033;-68
2022/12/13 09:24:09;;;;;;;28.80;13.10;;;;;;;-142.75;100.00;78686.97;5034769;28;20025;-67
2022/12/13 09:26:34;;;;;;;26.90;11.82;;;;;;;-142.75;100.00;78706.66;5037279;28;20047;-65
2022/12/13 09:29:00;;;;;;;30.50;13.25;;;;;;;-142.75;100.00;78706.66;5046039;28;20044;-68
2022/12/13 09:31:25;;;;;;;27.65;11.20;;;;;;;-142.75;100.00;78639.69;5039442;28;20040;-65
2022/12/13 09:33:50;;;;;;;28.58;13.27;;;;;;;-142.75;100.00;78602.28;5035962;28;20551;-67
2022/12/13 09:36:18;;;;;;;25.33;12.05;;;;;;;-142.75;100.00;78555.00;5036344;28;20520;-67
2022/12/13 09:38:44;;;;;;;23.93;12.43;;;;;;;-142.75;100.00;78547.13;5033029;28;20112;-67
2022/12/13 09:41:32;;;;;;;28.63;13.63;;;;;;;-142.75;100.00;78578.63;5037462;28;20039;-67
2022/12/13 09:44:15;;;;;;;26.03;13.80;;;;;;;-142.75;100.00;78574.69;5039755;28;20039;-65
2022/12/13 09:46:43;;;;;;;29.63;14.57;;;;;;;-142.75;100.00;78551.06;5039342;28;20067;-66
2022/12/13 09:49:16;;;;;;;29.30;12.87;;;;;;;-142.75;100.00;78499.88;5035890;28;20024;-67
2022/12/13 09:51:45;;;;;;;29.23;14.47;;;;;;;-142.75;100.00;78484.09;5035822;28;20635;-67
2022/12/13 09:54:19;;;;;;;32.47;15.23;;;;;;;-142.75;100.00;78448.66;5040987;28;20029;-65
2022/12/13 09:56:49;;;;;;;29.07;13.53;;;;;;;-142.75;100.00;78425.03;5037147;28;20083;-64
2022/12/13 09:59:16;;;;;;;33.73;14.77;;;;;;;-142.75;100.00;78391.53;5041835;28;20036;-66
2022/12/13 10:01:41;;;;;;;31.43;14.43;;;;;;;-142.75;100.00;78395.47;5040850;28;20036;-66
2022/12/13 10:04:11;;;;;;;29.98;13.70;;;;;;;-142.75;100.00;78405.34;5042837;28;20024;-64
2022/12/13 10:06:37;;;;;;;28.37;14.33;;;;;;;-142.75;100.00;78381.69;5041232;28;20028;-64
2022/12/13 10:09:09;;;;;;;26.58;13.30;;;;;;;-142.75;100.00;78452.59;5043209;28;20040;-65
2022/12/13 10:11:34;;;;;;;29.23;14.07;;;;;;;-142.75;100.00;78387.59;5040338;28;20028;-63
2022/12/13 10:14:10;;;;;;;27.98;13.60;;;;;;;-142.75;100.00;78381.69;5035369;28;20090;-64
2022/12/13 10:16:41;;;;;;;23.80;11.23;;;;;;;-142.75;100.00;78336.41;5042199;28;20394;-66
2022/12/13 10:19:54;;;;;;;26.70;13.10;;;;;;;-142.75;100.00;78289.13;5045937;28;20287;-65
2022/12/13 10:22:23;;;;;;;29.80;13.13;;;;;;;-142.75;100.00;78247.78;5028491;28;20127;-65
2022/12/13 10:24:52;;;;;;;29.60;13.63;;;;;;;-142.75;100.00;78188.72;5040654;28;20052;-66
2022/12/13 10:27:24;;;;;;;29.30;13.90;;;;;;;-142.75;100.00;78113.88;5028146;28;20238;-64
2022/12/13 10:30:09;;;;;;;31.03;14.50;;;;;;;-142.75;100.00;78072.53;4995840;28;20541;-64
2022/12/13 10:32:47;;;;;;;27.23;14.07;;;;;;;-142.75;100.00;78039.03;4999552;28;20043;-65
2022/12/13 10:35:33;;;;;;;25.90;13.33;;;;;;;-142.75;100.00;78074.50;4998876;28;20060;-66
2022/12/13 10:38:25;;;;;;;30.73;15.00;;;;;;;-142.75;100.00;78096.16;4998805;28;20028;-66
2022/12/13 10:40:51;;;;;;;26.73;14.00;;;;;;;-142.75;100.00;78149.31;4982040;28;20048;-66
2022/12/13 10:43:20;;;;;;;;;;;;;;;-142.75;100.00;78180.81;4989542;28;20040;-66
2022/12/13 10:45:58;;;;;;;28.00;14.03;;;;;;;-142.75;100.00;78169.00;5000592;28;19938;-66
2022/12/13 10:48:50;;;;;;;30.17;14.50;;;;;;;-142.75;100.00;78202.50;4986802;28;20052;-65
2022/12/13 10:51:19;;;;;;;27.13;13.57;;;;;;;-142.75;100.00;78239.91;4987499;28;20040;-64
2022/12/13 10:53:53;;;;;;;28.37;13.43;;;;;;;-142.75;100.00;78291.09;4974636;28;20558;-65
2022/12/13 10:56:21;;;;;;;25.20;12.37;;;;;;;-142.75;100.00;78277.31;4985374;28;20098;-65
2022/12/13 10:58:50;;;;;;;27.57;13.73;;;;;;;-142.75;100.00;78324.59;4986771;28;20021;-65
2022/12/13 11:01:21;;;;;;;33.83;13.33;;;;;;;-142.75;100.00;78338.38;4994478;28;20051;-65
2022/12/13 11:04:02;;;;;;;29.67;14.67;;;;;;;-142.75;100.00;78322.63;5000061;28;20135;-65
2022/12/13 11:06:40;;;;;;;31.00;14.33;;;;;;;-142.75;100.00;78306.88;4993785;28;20085;-65
2022/12/13 11:09:32;;;;;;;31.03;13.60;;;;;;;-142.75;100.00;78287.16;4992608;28;20554;-66
2022/12/13 11:12:01;;;;;;;32.57;14.20;;;;;;;-142.75;100.00;78265.50;4995831;28;20028;-65
2022/12/13 11:14:31;;;;;;;27.63;14.17;;;;;;;-142.75;100.00;78279.28;4996223;28;20020;-65